Peixe-Boi, Brazil
Current Conditions -  °F | °C
As of 5:00 AM on Sunday 28 Dec 2014 (Local Time) from SBBE Reporting Station
Few Clouds Few Clouds  
Wind Chill: 75°   Ceiling: Unl
Heat Index: 75°   Visibility: 6mi
Dew Point: 73°   Wind: 5mph
Humidity: 94%   Direction: 60°ENE
Pressure: 29.83"   Gusts: NA
Location:  1.19°S, 47.31°W
Report Text: SBBE 280800Z 06004KT 9999 FEW015 24/23 Q1010
Loading
Personal Weather Stations






























Interactive Weather Map New forecast layout! Learn more

10-Day Weather Forecast

Advertisements
Track Severe Weather on mobile